createdAt,value
2019-04-05T00:00:58.745Z,11.13
2019-04-05T00:03:25.403Z,11.03
2019-04-05T00:05:51.683Z,10.27
2019-04-05T00:08:18.184Z,11.90
2019-04-05T00:10:44.671Z,10.67
2019-04-05T00:13:11.269Z,11.57
2019-04-05T00:15:38.154Z,10.00
2019-04-05T00:18:04.625Z,11.97
2019-04-05T00:20:31.020Z,11.40
2019-04-05T00:22:57.392Z,9.97
2019-04-05T00:25:23.895Z,11.27
2019-04-05T00:27:50.244Z,10.27
2019-04-05T00:30:17.106Z,11.40
2019-04-05T00:32:43.514Z,11.53
2019-04-05T00:35:10.108Z,10.17
2019-04-05T00:37:36.495Z,11.43
2019-04-05T00:40:06.813Z,10.73
2019-04-05T00:42:33.196Z,10.23
2019-04-05T00:44:59.838Z,10.37
2019-04-05T00:47:26.323Z,10.33
2019-04-05T00:49:52.870Z,10.57
2019-04-05T00:52:19.445Z,11.83
2019-04-05T00:54:45.937Z,10.77
2019-04-05T00:57:12.476Z,10.43
2019-04-05T00:59:39.142Z,10.13
2019-04-05T01:02:05.824Z,10.13
2019-04-05T01:04:32.325Z,10.13
2019-04-05T01:06:58.934Z,10.40
2019-04-05T01:09:25.447Z,10.17
2019-04-05T01:11:51.981Z,10.87
2019-04-05T01:14:19.271Z,11.13
2019-04-05T01:16:45.724Z,11.43
2019-04-05T01:19:13.271Z,12.67
2019-04-05T01:21:43.891Z,13.53
2019-04-05T01:24:11.885Z,12.23
2019-04-05T01:26:39.498Z,12.63
2019-04-05T01:29:05.990Z,13.33
2019-04-05T01:31:32.620Z,14.37
2019-04-05T01:33:59.218Z,12.70
2019-04-05T01:36:25.840Z,13.07
2019-04-05T01:38:52.409Z,12.90
2019-04-05T01:41:18.961Z,13.77
2019-04-05T01:43:45.557Z,14.00
2019-04-05T01:46:12.165Z,13.23
2019-04-05T01:48:38.491Z,13.37
2019-04-05T01:51:05.516Z,11.77
2019-04-05T01:53:32.089Z,13.13
2019-04-05T01:55:58.484Z,12.63
2019-04-05T01:58:24.990Z,12.23
2019-04-05T02:00:51.780Z,13.97
2019-04-05T02:03:18.402Z,15.37
2019-04-05T02:05:45.099Z,13.27
2019-04-05T02:08:11.735Z,14.70
2019-04-05T02:10:38.295Z,13.40
2019-04-05T02:13:05.023Z,13.90
2019-04-05T02:15:34.310Z,13.80
2019-04-05T02:18:00.954Z,16.13
2019-04-05T02:20:27.720Z,18.33
2019-04-05T02:22:54.431Z,18.27
2019-04-05T02:25:21.339Z,26.77
2019-04-05T02:27:47.949Z,19.93
2019-04-05T02:30:16.176Z,16.10
2019-04-05T02:32:43.091Z,15.87
2019-04-05T02:35:10.251Z,15.20
2019-04-05T02:37:36.900Z,14.37
2019-04-05T02:40:11.382Z,15.40
2019-04-05T02:42:38.787Z,16.90
2019-04-05T02:45:09.665Z,13.83
2019-04-05T02:47:39.916Z,17.10
2019-04-05T02:50:07.141Z,16.07
2019-04-05T02:52:34.725Z,15.57
2019-04-05T02:55:01.535Z,15.93
2019-04-05T02:57:29.461Z,17.33
2019-04-05T02:59:56.649Z,15.13
2019-04-05T03:02:23.935Z,16.67
2019-04-05T03:04:50.548Z,17.53
2019-04-05T03:07:17.712Z,27.67
2019-04-05T03:09:44.535Z,39.27
2019-04-05T03:12:11.426Z,20.20
2019-04-05T03:14:38.554Z,18.03
2019-04-05T03:17:06.097Z,14.67
2019-04-05T03:19:35.992Z,14.67
2019-04-05T03:22:07.281Z,15.07
2019-04-05T03:24:39.225Z,16.00
2019-04-05T03:27:11.227Z,15.23
2019-04-05T03:29:38.028Z,13.10
2019-04-05T03:32:04.816Z,13.30
2019-04-05T03:34:31.846Z,15.90
2019-04-05T03:36:58.816Z,14.87
2019-04-05T03:39:25.971Z,14.17
2019-04-05T03:41:53.529Z,14.43
2019-04-05T03:44:22.996Z,19.30
2019-04-05T03:46:57.148Z,17.67
2019-04-05T03:49:18.243Z,15.27
2019-04-05T03:51:45.103Z,14.83
2019-04-05T03:54:12.024Z,12.43
2019-04-05T03:56:38.637Z,14.13
2019-04-05T03:59:05.765Z,13.57
2019-04-05T04:01:32.615Z,15.53
2019-04-05T04:03:59.286Z,15.70
2019-04-05T04:06:26.430Z,13.57
2019-04-05T04:08:53.059Z,13.17
2019-04-05T04:11:20.478Z,16.87
2019-04-05T04:13:47.143Z,15.47
2019-04-05T04:16:13.956Z,14.90
2019-04-05T04:18:40.656Z,15.63
2019-04-05T04:21:33.390Z,15.30
2019-04-05T04:24:00.490Z,14.23
2019-04-05T04:26:27.409Z,12.90
2019-04-05T04:28:54.427Z,13.07
2019-04-05T04:31:21.528Z,13.63
2019-04-05T04:33:48.357Z,14.23
2019-04-05T04:36:15.169Z,14.03
2019-04-05T04:38:41.979Z,14.43
2019-04-05T04:41:08.696Z,13.80
2019-04-05T04:43:35.894Z,15.80
2019-04-05T04:46:02.687Z,14.53
2019-04-05T04:48:29.306Z,14.33
2019-04-05T04:50:56.315Z,13.20
2019-04-05T04:53:23.389Z,12.27
2019-04-05T04:55:50.220Z,14.70
2019-04-05T04:58:16.943Z,14.00
2019-04-05T05:00:43.564Z,14.95
2019-04-05T05:03:10.204Z,15.00
2019-04-05T05:05:36.821Z,14.30
2019-04-05T05:08:03.823Z,14.13
2019-04-05T05:10:30.534Z,14.17
2019-04-05T05:12:57.419Z,14.97
2019-04-05T05:15:27.218Z,14.53
2019-04-05T05:17:58.911Z,14.53
2019-04-05T05:20:22.792Z,13.60
2019-04-05T05:22:49.360Z,13.43
2019-04-05T05:25:16.016Z,12.77
2019-04-05T05:27:42.970Z,14.70
2019-04-05T05:30:10.937Z,12.67
2019-04-05T05:32:37.720Z,14.40
2019-04-05T05:35:07.261Z,13.40
2019-04-05T05:37:34.796Z,13.97
2019-04-05T05:40:02.965Z,16.80
2019-04-05T05:42:29.433Z,14.87
2019-04-05T05:44:56.077Z,14.00
2019-04-05T05:47:22.480Z,14.00
2019-04-05T05:49:48.870Z,14.37
2019-04-05T05:52:15.267Z,14.67
2019-04-05T05:54:41.711Z,15.87
2019-04-05T05:57:08.024Z,15.23
2019-04-05T05:59:34.561Z,15.63
2019-04-05T06:02:01.133Z,16.50
2019-04-05T06:04:27.561Z,15.50
2019-04-05T06:06:53.956Z,17.07
2019-04-05T06:09:20.502Z,17.03
2019-04-05T06:11:47.010Z,20.57
2019-04-05T06:14:13.420Z,19.70
2019-04-05T06:16:46.246Z,17.63
2019-04-05T06:19:08.181Z,16.90
2019-04-05T06:21:34.585Z,18.03
2019-04-05T06:24:00.976Z,18.77
2019-04-05T06:26:27.495Z,19.57
2019-04-05T06:28:54.090Z,19.40
2019-04-05T06:31:20.445Z,18.47
2019-04-05T06:33:46.939Z,19.80
2019-04-05T06:36:13.313Z,19.43
2019-04-05T06:38:39.572Z,21.77
2019-04-05T06:41:06.093Z,20.97
2019-04-05T06:43:32.454Z,20.27
2019-04-05T06:45:58.862Z,22.63
2019-04-05T06:48:29.039Z,21.13
2019-04-05T06:50:53.766Z,19.73
2019-04-05T06:53:20.255Z,18.03
2019-04-05T06:55:46.696Z,22.23
2019-04-05T06:58:19.813Z,21.80
2019-04-05T07:00:41.351Z,21.27
2019-04-05T07:03:07.747Z,21.77
2019-04-05T07:05:34.285Z,19.67
2019-04-05T07:08:00.851Z,21.93
2019-04-05T07:10:27.221Z,23.73
2019-04-05T07:12:53.801Z,21.53
2019-04-05T07:15:20.447Z,21.10
2019-04-05T07:17:46.885Z,20.70
2019-04-05T07:20:13.372Z,22.63
2019-04-05T07:22:40.243Z,20.23
2019-04-05T07:25:06.937Z,22.80
2019-04-05T07:27:33.335Z,21.50
2019-04-05T07:29:59.729Z,22.23
2019-04-05T07:32:26.154Z,21.63
2019-04-05T07:34:52.535Z,23.30
2019-04-05T07:37:18.860Z,24.17
2019-04-05T07:39:45.431Z,23.53
2019-04-05T07:42:11.934Z,21.83
2019-04-05T07:44:38.306Z,21.53
2019-04-05T07:47:04.813Z,22.17
2019-04-05T07:49:31.354Z,22.37
2019-04-05T07:51:57.784Z,23.07
2019-04-05T07:54:24.150Z,18.57
2019-04-05T07:56:50.651Z,20.50
2019-04-05T07:59:16.937Z,22.60
2019-04-05T08:01:43.502Z,22.90
2019-04-05T08:04:10.016Z,23.07
2019-04-05T08:06:40.205Z,24.60
2019-04-05T08:09:11.048Z,21.77
2019-04-05T08:11:39.432Z,20.03
2019-04-05T08:14:06.380Z,19.97
2019-04-05T08:16:33.094Z,19.17
2019-04-05T08:18:59.758Z,17.53
2019-04-05T08:21:26.247Z,17.13
2019-04-05T08:23:52.553Z,17.10
2019-04-05T08:26:18.913Z,17.83
2019-04-05T08:28:45.432Z,15.93
2019-04-05T08:31:14.424Z,17.67
2019-04-05T08:33:40.281Z,16.60
2019-04-05T08:36:06.864Z,18.17
2019-04-05T08:38:33.270Z,18.07
2019-04-05T08:40:59.746Z,18.10
2019-04-05T08:43:26.124Z,17.90
2019-04-05T08:45:52.740Z,19.87
2019-04-05T08:48:19.019Z,18.20
2019-04-05T08:50:45.511Z,19.20
2019-04-05T08:53:11.992Z,17.23
2019-04-05T08:55:38.408Z,17.13
2019-04-05T08:58:05.020Z,17.17
2019-04-05T09:00:31.625Z,18.20
2019-04-05T09:02:58.139Z,17.07
2019-04-05T09:05:24.906Z,16.40
2019-04-05T09:07:51.332Z,17.03
2019-04-05T09:10:17.924Z,15.30
2019-04-05T09:12:44.347Z,16.37
2019-04-05T09:15:11.039Z,15.57
2019-04-05T09:17:37.624Z,16.33
2019-04-05T09:20:05.164Z,15.57
2019-04-05T09:22:31.710Z,17.57
2019-04-05T09:24:58.118Z,16.00
2019-04-05T09:27:24.490Z,17.37
2019-04-05T09:29:51.014Z,17.53
2019-04-05T09:32:17.701Z,16.27
2019-04-05T09:34:44.113Z,17.17
2019-04-05T09:37:10.433Z,16.90
2019-04-05T09:39:36.841Z,16.93
2019-04-05T09:42:03.481Z,17.43
2019-04-05T09:44:29.872Z,17.13
2019-04-05T09:46:56.387Z,17.70
2019-04-05T09:49:35.886Z,16.90
2019-04-05T09:51:51.042Z,17.00
2019-04-05T09:54:17.726Z,16.43
2019-04-05T09:56:44.127Z,17.50
2019-04-05T09:59:10.739Z,16.63
2019-04-05T10:01:37.244Z,16.80
2019-04-05T10:04:03.870Z,17.63
2019-04-05T10:06:30.636Z,16.77
2019-04-05T10:08:57.227Z,18.43
2019-04-05T10:11:23.842Z,17.87
2019-04-05T10:13:50.386Z,19.57
2019-04-05T10:16:16.962Z,18.73
2019-04-05T10:18:43.435Z,17.93
2019-04-05T10:21:09.816Z,18.40
2019-04-05T10:23:36.112Z,19.97
2019-04-05T10:26:03.548Z,21.07
2019-04-05T10:28:29.840Z,21.60
2019-04-05T10:30:56.235Z,20.50
2019-04-05T10:33:22.663Z,20.67
2019-04-05T10:35:49.155Z,21.77
2019-04-05T10:38:15.547Z,22.07
2019-04-05T10:40:42.001Z,22.40
2019-04-05T10:43:08.751Z,23.17
2019-04-05T10:45:35.229Z,23.90
2019-04-05T10:48:01.571Z,21.90
2019-04-05T10:50:28.187Z,22.47
2019-04-05T10:52:54.711Z,23.10
2019-04-05T10:55:21.192Z,22.03
2019-04-05T10:57:47.744Z,21.93
2019-04-05T11:00:15.675Z,22.63
2019-04-05T11:02:42.200Z,22.07
2019-04-05T11:05:09.317Z,22.00
2019-04-05T11:07:35.770Z,22.83
2019-04-05T11:10:05.584Z,21.73
2019-04-05T11:12:32.000Z,23.73
2019-04-05T11:14:58.560Z,24.20
2019-04-05T11:17:25.100Z,22.40
2019-04-05T11:19:51.638Z,24.13
2019-04-05T11:22:20.445Z,21.63
2019-04-05T11:24:46.562Z,21.93
2019-04-05T11:27:13.046Z,19.57
2019-04-05T11:29:39.601Z,20.47
2019-04-05T11:32:06.107Z,19.90
2019-04-05T11:34:32.733Z,17.67
2019-04-05T11:37:02.672Z,18.07
2019-04-05T11:39:28.747Z,18.43
2019-04-05T11:41:57.432Z,18.23
2019-04-05T11:44:25.410Z,21.70
2019-04-05T11:46:53.271Z,20.47
2019-04-05T11:49:21.666Z,22.97
2019-04-05T11:51:48.488Z,25.03
2019-04-05T11:54:15.028Z,25.37
2019-04-05T11:56:41.405Z,24.83
2019-04-05T11:59:09.816Z,25.90
2019-04-05T12:01:41.308Z,25.10
2019-04-05T12:04:07.681Z,28.13
2019-04-05T12:06:36.042Z,26.77
2019-04-05T12:09:27.738Z,23.80
2019-04-05T12:11:54.462Z,21.57
2019-04-05T12:14:30.189Z,19.47
2019-04-05T12:16:49.492Z,18.20
2019-04-05T12:19:16.029Z,19.53
2019-04-05T12:21:42.566Z,19.30
2019-04-05T12:24:08.986Z,19.53
2019-04-05T12:26:35.645Z,19.53
2019-04-05T12:29:02.209Z,18.87
2019-04-05T12:31:28.839Z,22.10
2019-04-05T12:33:55.402Z,22.00
2019-04-05T12:36:22.692Z,22.00
2019-04-05T12:38:49.343Z,24.63
2019-04-05T12:41:18.208Z,22.57
2019-04-05T12:43:44.768Z,24.53
2019-04-05T12:46:15.927Z,27.13
2019-04-05T12:48:41.112Z,28.30
2019-04-05T12:51:07.886Z,28.33
2019-04-05T12:53:34.421Z,27.63
2019-04-05T12:56:01.018Z,29.10
2019-04-05T12:58:27.679Z,31.53
2019-04-05T13:00:56.323Z,33.17
2019-04-05T13:03:22.929Z,27.23
2019-04-05T13:05:51.576Z,25.67
2019-04-05T13:08:17.901Z,26.43
2019-04-05T13:10:44.413Z,21.83
2019-04-05T13:13:10.854Z,20.30
2019-04-05T13:15:39.951Z,19.80
2019-04-05T13:18:08.850Z,19.43
2019-04-05T13:20:35.377Z,19.97
2019-04-05T13:23:06.271Z,21.97
2019-04-05T13:25:30.628Z,21.33
2019-04-05T13:27:57.058Z,20.23
2019-04-05T13:30:23.468Z,22.53
2019-04-05T13:32:52.722Z,21.90
2019-04-05T13:35:18.557Z,22.13
2019-04-05T13:37:45.145Z,20.53
2019-04-05T13:40:13.048Z,21.73
2019-04-05T13:42:39.492Z,21.93
2019-04-05T13:45:07.460Z,21.80
2019-04-05T13:47:37.725Z,21.53
2019-04-05T13:50:05.352Z,19.63
2019-04-05T13:52:31.971Z,20.13
2019-04-05T13:54:58.966Z,22.30
2019-04-05T13:57:28.351Z,19.83
2019-04-05T13:59:54.156Z,21.80
2019-04-05T14:02:21.134Z,21.53
2019-04-05T14:04:48.385Z,23.03
2019-04-05T14:07:15.062Z,21.03
2019-04-05T14:09:41.727Z,20.63
2019-04-05T14:12:09.560Z,22.30
2019-04-05T14:14:36.851Z,22.23
2019-04-05T14:17:03.462Z,22.00
2019-04-05T14:19:30.099Z,21.43
2019-04-05T14:22:07.740Z,21.00
2019-04-05T14:24:25.133Z,41.00
2019-04-05T14:26:51.635Z,27.33
2019-04-05T14:29:18.245Z,23.33
2019-04-05T14:31:44.732Z,21.27
2019-04-05T14:34:11.416Z,21.40
2019-04-05T14:36:38.042Z,22.03
2019-04-05T14:39:08.379Z,20.73
2019-04-05T14:41:35.028Z,20.40
2019-04-05T14:44:01.537Z,19.73
2019-04-05T14:46:29.123Z,20.77
2019-04-05T14:48:55.726Z,19.03
2019-04-05T14:51:22.499Z,19.07
2019-04-05T14:53:49.335Z,18.07
2019-04-05T14:56:16.155Z,17.50
2019-04-05T14:58:42.796Z,18.03
2019-04-05T15:01:10.618Z,19.23
2019-04-05T15:03:37.084Z,17.63
2019-04-05T15:06:04.137Z,18.17
2019-04-05T15:08:30.605Z,17.77
2019-04-05T15:10:57.348Z,19.87
2019-04-05T15:13:23.972Z,23.47
2019-04-05T15:15:50.514Z,21.30
2019-04-05T15:18:19.397Z,20.60
2019-04-05T15:20:46.113Z,18.57
2019-04-05T15:23:14.114Z,18.00
2019-04-05T15:25:41.126Z,18.63
2019-04-05T15:28:07.658Z,16.03
2019-04-05T15:30:34.241Z,15.77
2019-04-05T15:33:02.657Z,15.77
2019-04-05T15:35:29.301Z,15.80
2019-04-05T15:37:55.758Z,15.07
2019-04-05T15:40:22.406Z,16.30
2019-04-05T15:42:49.112Z,16.50
2019-04-05T15:45:16.627Z,17.57
2019-04-05T15:47:43.188Z,17.00
2019-04-05T15:50:09.959Z,17.03
2019-04-05T15:52:37.319Z,18.77
2019-04-05T15:55:05.656Z,18.73
2019-04-05T15:57:34.254Z,17.27
2019-04-05T16:00:03.807Z,17.83
2019-04-05T16:02:29.359Z,19.13
2019-04-05T16:04:55.853Z,21.53
2019-04-05T16:07:22.555Z,28.60
2019-04-05T16:09:49.116Z,21.00
2019-04-05T16:12:15.746Z,19.50
2019-04-05T16:14:42.403Z,18.87
2019-04-05T16:17:09.032Z,17.87
2019-04-05T16:19:35.727Z,19.33
2019-04-05T16:22:02.353Z,18.93
2019-04-05T16:24:28.924Z,17.80
2019-04-05T16:26:55.396Z,18.53
2019-04-05T16:29:21.876Z,17.80
2019-04-05T16:31:48.427Z,18.07
2019-04-05T16:34:15.138Z,18.30
2019-04-05T16:36:41.751Z,19.00
2019-04-05T16:39:10.335Z,18.63
2019-04-05T16:41:36.839Z,18.60
2019-04-05T16:44:03.589Z,20.10
2019-04-05T16:46:30.265Z,18.97
2019-04-05T16:48:57.054Z,19.73
2019-04-05T16:51:23.480Z,18.90
2019-04-05T16:54:00.027Z,19.73
2019-04-05T16:56:27.111Z,20.40
2019-04-05T16:58:53.858Z,24.73
2019-04-05T17:01:27.260Z,62.73
2019-04-05T17:03:51.878Z,23.00
2019-04-05T17:06:18.619Z,19.83
2019-04-05T17:08:45.571Z,19.33
2019-04-05T17:11:12.341Z,19.27
2019-04-05T17:13:39.186Z,19.70
2019-04-05T17:16:07.179Z,20.77
2019-04-05T17:18:33.945Z,20.67
2019-04-05T17:21:00.767Z,22.37
2019-04-05T17:23:27.358Z,21.80
2019-04-05T17:25:54.015Z,21.67
2019-04-05T17:28:20.541Z,22.60
2019-04-05T17:30:47.214Z,22.60
2019-04-05T17:33:13.888Z,23.37
2019-04-05T17:35:40.822Z,22.63
2019-04-05T17:38:07.437Z,21.90
2019-04-05T17:40:34.127Z,24.20
2019-04-05T17:43:01.600Z,23.57
2019-04-05T17:45:28.396Z,22.77
2019-04-05T17:47:55.054Z,16.77
2019-04-05T17:50:30.978Z,15.60
2019-04-05T17:53:10.927Z,16.03
2019-04-05T17:55:26.305Z,13.53
2019-04-05T17:57:53.239Z,19.70
2019-04-05T18:00:21.868Z,21.07
2019-04-05T18:02:48.699Z,14.43
2019-04-05T18:05:15.496Z,19.43
2019-04-05T18:07:42.690Z,21.70
2019-04-05T18:10:09.573Z,26.17
2019-04-05T18:12:36.363Z,22.07
2019-04-05T18:15:04.236Z,22.67
2019-04-05T18:17:31.082Z,21.37
2019-04-05T18:19:57.862Z,22.43
2019-04-05T18:22:24.686Z,21.63
2019-04-05T18:24:51.298Z,21.90
2019-04-05T18:27:17.957Z,21.93
2019-04-05T18:29:44.878Z,22.23
2019-04-05T18:32:11.764Z,21.57
2019-04-05T18:34:38.191Z,22.50
2019-04-05T18:37:04.985Z,22.13
2019-04-05T18:39:31.521Z,20.87
2019-04-05T18:41:58.213Z,22.97
2019-04-05T18:44:25.050Z,23.00
2019-04-05T18:46:51.616Z,20.93
2019-04-05T18:49:18.504Z,22.43
2019-04-05T18:51:45.392Z,22.03
2019-04-05T18:54:12.364Z,23.80
2019-04-05T18:56:39.727Z,21.97
2019-04-05T18:59:06.606Z,38.57
2019-04-05T19:01:33.332Z,39.37
2019-04-05T19:04:00.163Z,25.83
2019-04-05T19:06:30.218Z,22.83
2019-04-05T19:09:03.603Z,24.47
2019-04-05T19:11:31.685Z,24.73
2019-04-05T19:14:01.334Z,24.40
2019-04-05T19:16:28.363Z,23.53
2019-04-05T19:18:55.075Z,24.23
2019-04-05T19:21:21.873Z,25.03
2019-04-05T19:23:51.030Z,26.67
2019-04-05T19:26:18.057Z,26.80
2019-04-05T19:28:44.844Z,24.67
2019-04-05T19:48:41.805Z,28.33
2019-04-05T19:51:09.012Z,27.77
2019-04-05T19:53:37.245Z,26.37
2019-04-05T19:56:05.646Z,26.57
2019-04-05T19:58:32.370Z,27.83
2019-04-05T20:00:59.339Z,29.07
2019-04-05T20:03:26.158Z,27.30
2019-04-05T20:05:53.663Z,28.07
2019-04-05T20:08:20.475Z,25.87
2019-04-05T20:10:47.451Z,28.33
2019-04-05T20:13:14.204Z,26.43
2019-04-05T20:15:41.094Z,28.60
2019-04-05T20:18:08.067Z,27.17
2019-04-05T20:20:34.880Z,28.73
2019-04-05T20:23:01.677Z,28.40
2019-04-05T20:25:30.290Z,29.83
2019-04-05T20:27:56.847Z,30.80
2019-04-05T20:30:23.626Z,30.03
2019-04-05T20:32:50.338Z,30.30
2019-04-05T20:35:16.884Z,29.33
2019-04-05T20:37:43.461Z,31.37
2019-04-05T20:40:10.196Z,29.53
2019-04-05T20:42:36.775Z,31.50
2019-04-05T20:45:05.120Z,30.67
2019-04-05T20:47:32.096Z,30.30
2019-04-05T20:49:58.583Z,32.30
2019-04-05T20:52:25.343Z,30.33
2019-04-05T20:54:52.094Z,28.73
2019-04-05T20:57:18.800Z,34.83
2019-04-05T20:59:45.434Z,30.70
2019-04-05T21:02:12.196Z,31.17
2019-04-05T21:04:38.977Z,32.63
2019-04-05T21:07:05.513Z,31.67
2019-04-05T21:09:32.099Z,32.03
2019-04-05T21:11:58.687Z,35.00
2019-04-05T21:14:25.327Z,34.87
2019-04-05T21:16:51.861Z,34.57
2019-04-05T21:19:18.696Z,31.83
2019-04-05T21:21:45.391Z,33.77
2019-04-05T21:24:12.004Z,35.07
2019-04-05T21:26:38.707Z,33.80
2019-04-05T21:29:05.293Z,32.67
2019-04-05T21:31:31.818Z,33.70
2019-04-05T21:33:58.377Z,34.83
2019-04-05T21:36:24.775Z,39.00
2019-04-05T21:38:51.337Z,34.87
2019-04-05T21:41:17.972Z,38.30
2019-04-05T21:43:44.598Z,38.07
2019-04-05T21:46:11.127Z,35.70
2019-04-05T21:48:37.748Z,34.53
2019-04-05T21:51:04.266Z,36.20
2019-04-05T21:53:31.007Z,38.83
2019-04-05T21:55:57.694Z,36.53
2019-04-05T21:58:25.935Z,35.13
2019-04-05T22:00:57.568Z,37.63
2019-04-05T22:03:24.268Z,38.17
2019-04-05T22:05:50.804Z,36.60
2019-04-05T22:08:17.327Z,38.37
2019-04-05T22:10:43.957Z,39.03
2019-04-05T22:13:10.570Z,40.20
2019-04-05T22:15:37.326Z,39.17
2019-04-05T22:18:03.951Z,41.53
2019-04-05T22:20:30.434Z,40.17
2019-04-05T22:22:56.927Z,37.70
2019-04-05T22:25:23.452Z,39.90
2019-04-05T22:27:49.917Z,39.33
2019-04-05T22:30:16.566Z,40.50
2019-04-05T22:32:42.955Z,40.07
2019-04-05T22:35:09.502Z,40.00
2019-04-05T22:37:35.914Z,40.73
2019-04-05T22:40:05.336Z,40.70
2019-04-05T22:42:31.742Z,40.27
2019-04-05T22:44:58.128Z,39.33
2019-04-05T22:47:24.703Z,38.63
2019-04-05T22:49:51.078Z,39.57
2019-04-05T22:52:17.631Z,38.43
2019-04-05T22:54:44.122Z,39.90
2019-04-05T22:57:10.437Z,37.13
2019-04-05T22:59:37.046Z,42.37
2019-04-05T23:02:03.666Z,41.23
2019-04-05T23:04:30.162Z,42.53
2019-04-05T23:06:56.725Z,42.00
2019-04-05T23:09:23.239Z,39.67
2019-04-05T23:11:49.659Z,43.40
2019-04-05T23:14:16.037Z,42.03
2019-04-05T23:16:42.458Z,42.80
2019-04-05T23:19:08.862Z,42.33
2019-04-05T23:21:35.236Z,41.20
2019-04-05T23:24:01.528Z,39.50
2019-04-05T23:26:28.990Z,42.00
2019-04-05T23:28:55.544Z,41.13
2019-04-05T23:31:22.097Z,40.83
2019-04-05T23:33:48.704Z,42.97
2019-04-05T23:36:15.488Z,42.70
2019-04-05T23:38:42.042Z,41.53
2019-04-05T23:41:08.362Z,42.70
2019-04-05T23:43:34.898Z,43.10
2019-04-05T23:46:01.219Z,40.73
2019-04-05T23:48:27.527Z,41.83
2019-04-05T23:50:54.003Z,39.83
2019-04-05T23:53:20.472Z,42.10
2019-04-05T23:55:46.966Z,41.90
2019-04-05T23:58:13.464Z,43.33
